sensor_id;sensor_type;location;lat;lon;timestamp;P1;durP1;ratioP1;P2;durP2;ratioP2
41946;SDS011;27638;42.184;24.848;2022-11-15T00:00:27;63.88;;;29.77;;
41946;SDS011;27638;42.184;24.848;2022-11-15T00:02:53;61.33;;;30.38;;
41946;SDS011;27638;42.184;24.848;2022-11-15T00:05:18;55.30;;;29.20;;
41946;SDS011;27638;42.184;24.848;2022-11-15T00:07:44;53.72;;;27.67;;
41946;SDS011;27638;42.184;24.848;2022-11-15T00:10:09;53.95;;;27.70;;
41946;SDS011;27638;42.184;24.848;2022-11-15T00:12:35;54.85;;;28.73;;
41946;SDS011;27638;42.184;24.848;2022-11-15T00:15:00;57.28;;;28.95;;
41946;SDS011;27638;42.184;24.848;2022-11-15T00:17:26;50.58;;;26.55;;
41946;SDS011;27638;42.184;24.848;2022-11-15T00:19:51;50.30;;;25.92;;
41946;SDS011;27638;42.184;24.848;2022-11-15T00:22:17;52.45;;;26.40;;
41946;SDS011;27638;42.184;24.848;2022-11-15T00:24:42;51.40;;;26.30;;
41946;SDS011;27638;42.184;24.848;2022-11-15T00:27:07;44.72;;;24.45;;
41946;SDS011;27638;42.184;24.848;2022-11-15T00:29:33;51.05;;;26.35;;
41946;SDS011;27638;42.184;24.848;2022-11-15T00:31:58;47.65;;;25.77;;
41946;SDS011;27638;42.184;24.848;2022-11-15T00:34:24;48.90;;;25.75;;
41946;SDS011;27638;42.184;24.848;2022-11-15T00:36:49;50.53;;;26.25;;
41946;SDS011;27638;42.184;24.848;2022-11-15T00:39:15;48.88;;;25.88;;
41946;SDS011;27638;42.184;24.848;2022-11-15T00:41:40;48.35;;;24.95;;
41946;SDS011;27638;42.184;24.848;2022-11-15T00:44:05;42.45;;;23.75;;
41946;SDS011;27638;42.184;24.848;2022-11-15T00:46:31;50.13;;;26.30;;
41946;SDS011;27638;42.184;24.848;2022-11-15T00:48:56;52.95;;;28.88;;
41946;SDS011;27638;42.184;24.848;2022-11-15T00:51:22;62.30;;;30.90;;
41946;SDS011;27638;42.184;24.848;2022-11-15T00:53:47;56.00;;;30.33;;
41946;SDS011;27638;42.184;24.848;2022-11-15T00:56:13;64.85;;;30.10;;
41946;SDS011;27638;42.184;24.848;2022-11-15T00:58:38;57.53;;;29.73;;
41946;SDS011;27638;42.184;24.848;2022-11-15T01:01:07;55.60;;;29.02;;
41946;SDS011;27638;42.184;24.848;2022-11-15T01:06:04;53.60;;;29.20;;
41946;SDS011;27638;42.184;24.848;2022-11-15T01:08:30;54.90;;;27.88;;
41946;SDS011;27638;42.184;24.848;2022-11-15T01:10:59;52.70;;;29.38;;
41946;SDS011;27638;42.184;24.848;2022-11-15T01:13:30;59.40;;;30.13;;
41946;SDS011;27638;42.184;24.848;2022-11-15T01:15:57;50.72;;;28.08;;
41946;SDS011;27638;42.184;24.848;2022-11-15T01:18:23;56.33;;;29.33;;
41946;SDS011;27638;42.184;24.848;2022-11-15T01:20:48;55.63;;;28.25;;
41946;SDS011;27638;42.184;24.848;2022-11-15T01:23:14;55.40;;;29.48;;
41946;SDS011;27638;42.184;24.848;2022-11-15T01:25:39;52.03;;;28.40;;
41946;SDS011;27638;42.184;24.848;2022-11-15T01:28:04;68.07;;;35.15;;
41946;SDS011;27638;42.184;24.848;2022-11-15T01:30:30;69.75;;;34.53;;
41946;SDS011;27638;42.184;24.848;2022-11-15T01:32:56;66.95;;;34.35;;
41946;SDS011;27638;42.184;24.848;2022-11-15T01:35:21;71.00;;;35.15;;
41946;SDS011;27638;42.184;24.848;2022-11-15T01:37:46;65.55;;;34.95;;
41946;SDS011;27638;42.184;24.848;2022-11-15T01:40:12;68.57;;;35.65;;
41946;SDS011;27638;42.184;24.848;2022-11-15T01:42:38;62.75;;;34.78;;
41946;SDS011;27638;42.184;24.848;2022-11-15T01:45:03;70.13;;;35.58;;
41946;SDS011;27638;42.184;24.848;2022-11-15T01:47:31;66.63;;;35.60;;
41946;SDS011;27638;42.184;24.848;2022-11-15T01:50:01;68.18;;;34.65;;
41946;SDS011;27638;42.184;24.848;2022-11-15T01:52:31;71.40;;;36.60;;
41946;SDS011;27638;42.184;24.848;2022-11-15T01:57:25;69.03;;;36.65;;
41946;SDS011;27638;42.184;24.848;2022-11-15T01:59:50;75.00;;;39.25;;
41946;SDS011;27638;42.184;24.848;2022-11-15T02:02:16;73.63;;;38.78;;
41946;SDS011;27638;42.184;24.848;2022-11-15T02:04:45;81.78;;;40.45;;
41946;SDS011;27638;42.184;24.848;2022-11-15T02:07:12;89.03;;;38.72;;
41946;SDS011;27638;42.184;24.848;2022-11-15T02:09:40;76.25;;;39.15;;
41946;SDS011;27638;42.184;24.848;2022-11-15T02:12:07;82.60;;;42.05;;
41946;SDS011;27638;42.184;24.848;2022-11-15T02:14:35;81.80;;;40.72;;
41946;SDS011;27638;42.184;24.848;2022-11-15T02:30:49;80.18;;;41.20;;
41946;SDS011;27638;42.184;24.848;2022-11-15T02:35:59;81.75;;;41.75;;
41946;SDS011;27638;42.184;24.848;2022-11-15T02:41:10;79.90;;;43.03;;
41946;SDS011;27638;42.184;24.848;2022-11-15T02:46:40;80.55;;;42.28;;
41946;SDS011;27638;42.184;24.848;2022-11-15T02:49:29;85.40;;;43.00;;
41946;SDS011;27638;42.184;24.848;2022-11-15T02:51:57;80.10;;;41.50;;
41946;SDS011;27638;42.184;24.848;2022-11-15T02:54:25;79.75;;;41.80;;
41946;SDS011;27638;42.184;24.848;2022-11-15T02:56:56;87.80;;;43.40;;
41946;SDS011;27638;42.184;24.848;2022-11-15T03:02:20;81.10;;;44.20;;
41946;SDS011;27638;42.184;24.848;2022-11-15T03:07:24;81.53;;;43.33;;
41946;SDS011;27638;42.184;24.848;2022-11-15T03:10:12;82.40;;;43.13;;
41946;SDS011;27638;42.184;24.848;2022-11-15T03:16:02;84.35;;;42.80;;
41946;SDS011;27638;42.184;24.848;2022-11-15T03:18:43;73.75;;;36.72;;
41946;SDS011;27638;42.184;24.848;2022-11-15T03:21:15;67.75;;;35.45;;
41946;SDS011;27638;42.184;24.848;2022-11-15T03:23:42;65.88;;;34.13;;
41946;SDS011;27638;42.184;24.848;2022-11-15T03:26:10;65.07;;;32.90;;
41946;SDS011;27638;42.184;24.848;2022-11-15T03:31:13;57.58;;;30.20;;
41946;SDS011;27638;42.184;24.848;2022-11-15T03:34:00;57.22;;;30.33;;
41946;SDS011;27638;42.184;24.848;2022-11-15T03:36:31;53.35;;;29.40;;
41946;SDS011;27638;42.184;24.848;2022-11-15T03:39:00;50.03;;;27.13;;
41946;SDS011;27638;42.184;24.848;2022-11-15T03:41:40;50.75;;;29.25;;
41946;SDS011;27638;42.184;24.848;2022-11-15T03:44:14;57.58;;;31.73;;
41946;SDS011;27638;42.184;24.848;2022-11-15T03:49:24;64.85;;;30.05;;
41946;SDS011;27638;42.184;24.848;2022-11-15T03:51:56;55.50;;;28.15;;
41946;SDS011;27638;42.184;24.848;2022-11-15T03:54:22;47.65;;;25.25;;
41946;SDS011;27638;42.184;24.848;2022-11-15T03:56:48;49.08;;;27.23;;
41946;SDS011;27638;42.184;24.848;2022-11-15T03:59:13;53.03;;;26.92;;
41946;SDS011;27638;42.184;24.848;2022-11-15T04:01:39;58.92;;;29.83;;
41946;SDS011;27638;42.184;24.848;2022-11-15T04:04:04;52.90;;;28.00;;
41946;SDS011;27638;42.184;24.848;2022-11-15T04:06:30;49.25;;;26.33;;
41946;SDS011;27638;42.184;24.848;2022-11-15T04:08:55;50.08;;;26.85;;
41946;SDS011;27638;42.184;24.848;2022-11-15T04:11:20;48.28;;;26.70;;
41946;SDS011;27638;42.184;24.848;2022-11-15T04:13:46;62.75;;;29.23;;
41946;SDS011;27638;42.184;24.848;2022-11-15T04:16:11;62.47;;;29.63;;
41946;SDS011;27638;42.184;24.848;2022-11-15T04:18:37;66.18;;;32.00;;
41946;SDS011;27638;42.184;24.848;2022-11-15T04:21:02;55.72;;;28.98;;
41946;SDS011;27638;42.184;24.848;2022-11-15T04:23:46;50.95;;;28.10;;
41946;SDS011;27638;42.184;24.848;2022-11-15T04:26:30;41.20;;;21.90;;
41946;SDS011;27638;42.184;24.848;2022-11-15T04:28:56;50.58;;;26.73;;
41946;SDS011;27638;42.184;24.848;2022-11-15T04:31:40;51.28;;;27.27;;
41946;SDS011;27638;42.184;24.848;2022-11-15T04:34:05;57.90;;;28.40;;
41946;SDS011;27638;42.184;24.848;2022-11-15T04:36:31;49.95;;;27.17;;
41946;SDS011;27638;42.184;24.848;2022-11-15T04:39:15;53.47;;;28.48;;
41946;SDS011;27638;42.184;24.848;2022-11-15T04:41:40;50.00;;;28.50;;
41946;SDS011;27638;42.184;24.848;2022-11-15T04:44:06;49.45;;;27.90;;
41946;SDS011;27638;42.184;24.848;2022-11-15T04:46:31;48.47;;;27.80;;
41946;SDS011;27638;42.184;24.848;2022-11-15T04:48:57;58.72;;;30.92;;
41946;SDS011;27638;42.184;24.848;2022-11-15T04:51:22;58.95;;;27.70;;
41946;SDS011;27638;42.184;24.848;2022-11-15T04:53:48;48.75;;;27.10;;
41946;SDS011;27638;42.184;24.848;2022-11-15T04:56:13;52.83;;;27.02;;
41946;SDS011;27638;42.184;24.848;2022-11-15T04:58:39;48.85;;;25.80;;
41946;SDS011;27638;42.184;24.848;2022-11-15T05:01:11;49.35;;;26.08;;
41946;SDS011;27638;42.184;24.848;2022-11-15T05:03:42;51.28;;;26.35;;
41946;SDS011;27638;42.184;24.848;2022-11-15T05:06:26;47.95;;;25.92;;
41946;SDS011;27638;42.184;24.848;2022-11-15T05:08:53;51.47;;;27.75;;
41946;SDS011;27638;42.184;24.848;2022-11-15T05:11:19;52.22;;;26.95;;
41946;SDS011;27638;42.184;24.848;2022-11-15T05:13:45;50.08;;;26.77;;
41946;SDS011;27638;42.184;24.848;2022-11-15T05:16:12;59.38;;;27.58;;
41946;SDS011;27638;42.184;24.848;2022-11-15T05:18:38;55.83;;;28.02;;
41946;SDS011;27638;42.184;24.848;2022-11-15T05:21:07;58.33;;;29.23;;
41946;SDS011;27638;42.184;24.848;2022-11-15T05:23:34;53.63;;;29.52;;
41946;SDS011;27638;42.184;24.848;2022-11-15T05:26:01;56.17;;;30.67;;
41946;SDS011;27638;42.184;24.848;2022-11-15T05:28:27;54.25;;;30.63;;
41946;SDS011;27638;42.184;24.848;2022-11-15T05:30:53;59.25;;;32.50;;
41946;SDS011;27638;42.184;24.848;2022-11-15T05:33:29;67.90;;;32.65;;
41946;SDS011;27638;42.184;24.848;2022-11-15T05:35:57;55.25;;;30.02;;
41946;SDS011;27638;42.184;24.848;2022-11-15T05:38:27;56.90;;;29.92;;
41946;SDS011;27638;42.184;24.848;2022-11-15T05:40:53;64.68;;;33.28;;
41946;SDS011;27638;42.184;24.848;2022-11-15T05:43:19;54.90;;;30.77;;
41946;SDS011;27638;42.184;24.848;2022-11-15T05:45:45;57.05;;;29.77;;
41946;SDS011;27638;42.184;24.848;2022-11-15T05:48:10;55.70;;;29.67;;
41946;SDS011;27638;42.184;24.848;2022-11-15T05:50:37;59.05;;;31.80;;
41946;SDS011;27638;42.184;24.848;2022-11-15T05:53:06;80.25;;;37.38;;
41946;SDS011;27638;42.184;24.848;2022-11-15T05:55:31;80.93;;;38.47;;
41946;SDS011;27638;42.184;24.848;2022-11-15T05:57:57;61.67;;;30.23;;
41946;SDS011;27638;42.184;24.848;2022-11-15T06:00:22;53.95;;;26.55;;
41946;SDS011;27638;42.184;24.848;2022-11-15T06:02:48;53.30;;;27.20;;
41946;SDS011;27638;42.184;24.848;2022-11-15T06:05:13;52.28;;;26.13;;
41946;SDS011;27638;42.184;24.848;2022-11-15T06:07:39;56.13;;;29.88;;
41946;SDS011;27638;42.184;24.848;2022-11-15T06:10:04;57.20;;;29.80;;
41946;SDS011;27638;42.184;24.848;2022-11-15T06:12:30;53.90;;;28.42;;
41946;SDS011;27638;42.184;24.848;2022-11-15T06:14:56;54.70;;;27.52;;
41946;SDS011;27638;42.184;24.848;2022-11-15T06:17:21;64.18;;;30.08;;
41946;SDS011;27638;42.184;24.848;2022-11-15T06:19:46;62.90;;;30.90;;
41946;SDS011;27638;42.184;24.848;2022-11-15T06:22:12;56.30;;;30.38;;
41946;SDS011;27638;42.184;24.848;2022-11-15T06:24:37;65.25;;;28.65;;
41946;SDS011;27638;42.184;24.848;2022-11-15T06:27:03;51.08;;;28.95;;
41946;SDS011;27638;42.184;24.848;2022-11-15T06:29:28;54.97;;;29.38;;
41946;SDS011;27638;42.184;24.848;2022-11-15T06:31:53;54.60;;;28.50;;
41946;SDS011;27638;42.184;24.848;2022-11-15T06:34:19;56.92;;;28.90;;
41946;SDS011;27638;42.184;24.848;2022-11-15T06:36:44;54.92;;;29.00;;
41946;SDS011;27638;42.184;24.848;2022-11-15T06:39:10;52.65;;;29.08;;
41946;SDS011;27638;42.184;24.848;2022-11-15T06:41:35;53.78;;;27.48;;
41946;SDS011;27638;42.184;24.848;2022-11-15T06:44:01;43.42;;;24.45;;
41946;SDS011;27638;42.184;24.848;2022-11-15T06:46:27;44.58;;;24.60;;
41946;SDS011;27638;42.184;24.848;2022-11-15T06:48:53;45.80;;;23.92;;
41946;SDS011;27638;42.184;24.848;2022-11-15T06:51:19;46.47;;;24.83;;
41946;SDS011;27638;42.184;24.848;2022-11-15T06:53:44;45.53;;;24.02;;
41946;SDS011;27638;42.184;24.848;2022-11-15T06:56:10;46.05;;;24.13;;
41946;SDS011;27638;42.184;24.848;2022-11-15T06:58:36;47.28;;;24.08;;
41946;SDS011;27638;42.184;24.848;2022-11-15T07:01:03;49.33;;;24.58;;
41946;SDS011;27638;42.184;24.848;2022-11-15T07:03:30;45.10;;;24.17;;
41946;SDS011;27638;42.184;24.848;2022-11-15T07:05:56;49.00;;;24.95;;
41946;SDS011;27638;42.184;24.848;2022-11-15T07:08:23;57.33;;;29.83;;
41946;SDS011;27638;42.184;24.848;2022-11-15T07:10:49;89.10;;;40.30;;
41946;SDS011;27638;42.184;24.848;2022-11-15T07:13:14;90.53;;;39.78;;
41946;SDS011;27638;42.184;24.848;2022-11-15T07:15:40;68.63;;;30.08;;
41946;SDS011;27638;42.184;24.848;2022-11-15T07:18:05;44.17;;;22.60;;
41946;SDS011;27638;42.184;24.848;2022-11-15T07:20:31;45.72;;;24.30;;
41946;SDS011;27638;42.184;24.848;2022-11-15T07:23:00;42.75;;;22.77;;
41946;SDS011;27638;42.184;24.848;2022-11-15T07:25:28;48.95;;;22.38;;
41946;SDS011;27638;42.184;24.848;2022-11-15T07:27:55;42.33;;;22.58;;
41946;SDS011;27638;42.184;24.848;2022-11-15T07:30:21;46.05;;;24.40;;
41946;SDS011;27638;42.184;24.848;2022-11-15T07:32:47;42.75;;;24.75;;
41946;SDS011;27638;42.184;24.848;2022-11-15T07:35:12;43.38;;;21.85;;
41946;SDS011;27638;42.184;24.848;2022-11-15T07:37:38;39.67;;;21.50;;
41946;SDS011;27638;42.184;24.848;2022-11-15T07:40:03;42.78;;;21.60;;
41946;SDS011;27638;42.184;24.848;2022-11-15T07:42:30;43.95;;;23.25;;
41946;SDS011;27638;42.184;24.848;2022-11-15T07:45:15;44.83;;;21.45;;
41946;SDS011;27638;42.184;24.848;2022-11-15T07:47:40;42.00;;;23.13;;
41946;SDS011;27638;42.184;24.848;2022-11-15T07:50:05;46.80;;;22.77;;
41946;SDS011;27638;42.184;24.848;2022-11-15T07:52:31;46.30;;;23.83;;
41946;SDS011;27638;42.184;24.848;2022-11-15T07:54:56;44.05;;;23.67;;
41946;SDS011;27638;42.184;24.848;2022-11-15T07:57:22;43.67;;;21.52;;
41946;SDS011;27638;42.184;24.848;2022-11-15T07:59:47;45.22;;;25.10;;
41946;SDS011;27638;42.184;24.848;2022-11-15T08:02:13;45.50;;;23.58;;
41946;SDS011;27638;42.184;24.848;2022-11-15T08:04:38;45.47;;;23.60;;
41946;SDS011;27638;42.184;24.848;2022-11-15T08:07:04;53.47;;;26.58;;
41946;SDS011;27638;42.184;24.848;2022-11-15T08:09:29;56.33;;;25.92;;
41946;SDS011;27638;42.184;24.848;2022-11-15T08:11:54;54.25;;;26.15;;
41946;SDS011;27638;42.184;24.848;2022-11-15T08:14:20;52.05;;;24.00;;
41946;SDS011;27638;42.184;24.848;2022-11-15T08:16:47;51.55;;;24.02;;
41946;SDS011;27638;42.184;24.848;2022-11-15T08:19:12;49.20;;;22.80;;
41946;SDS011;27638;42.184;24.848;2022-11-15T08:21:38;43.17;;;22.58;;
41946;SDS011;27638;42.184;24.848;2022-11-15T08:24:03;51.63;;;25.75;;
41946;SDS011;27638;42.184;24.848;2022-11-15T08:26:29;68.43;;;28.98;;
41946;SDS011;27638;42.184;24.848;2022-11-15T08:28:55;51.03;;;23.50;;
41946;SDS011;27638;42.184;24.848;2022-11-15T08:31:20;48.85;;;22.17;;
41946;SDS011;27638;42.184;24.848;2022-11-15T08:33:46;45.35;;;22.40;;
41946;SDS011;27638;42.184;24.848;2022-11-15T08:36:12;42.20;;;20.88;;
41946;SDS011;27638;42.184;24.848;2022-11-15T08:38:39;33.75;;;19.23;;
41946;SDS011;27638;42.184;24.848;2022-11-15T08:41:05;46.17;;;21.63;;
41946;SDS011;27638;42.184;24.848;2022-11-15T08:43:31;46.72;;;23.58;;
41946;SDS011;27638;42.184;24.848;2022-11-15T08:45:57;39.20;;;21.92;;
41946;SDS011;27638;42.184;24.848;2022-11-15T08:48:22;41.03;;;21.98;;
41946;SDS011;27638;42.184;24.848;2022-11-15T08:50:48;41.90;;;22.27;;
41946;SDS011;27638;42.184;24.848;2022-11-15T08:53:13;41.72;;;22.58;;
41946;SDS011;27638;42.184;24.848;2022-11-15T08:55:40;40.40;;;20.75;;
41946;SDS011;27638;42.184;24.848;2022-11-15T08:58:06;41.28;;;21.60;;
41946;SDS011;27638;42.184;24.848;2022-11-15T09:00:32;83.65;;;33.67;;
41946;SDS011;27638;42.184;24.848;2022-11-15T09:02:58;75.00;;;29.65;;
41946;SDS011;27638;42.184;24.848;2022-11-15T09:05:24;43.33;;;24.17;;
41946;SDS011;27638;42.184;24.848;2022-11-15T09:07:53;39.40;;;23.15;;
41946;SDS011;27638;42.184;24.848;2022-11-15T09:10:19;45.08;;;23.48;;
41946;SDS011;27638;42.184;24.848;2022-11-15T09:12:45;41.67;;;22.27;;
41946;SDS011;27638;42.184;24.848;2022-11-15T09:15:13;56.17;;;25.65;;
41946;SDS011;27638;42.184;24.848;2022-11-15T09:17:39;50.00;;;25.23;;
41946;SDS011;27638;42.184;24.848;2022-11-15T09:20:05;48.85;;;23.77;;
41946;SDS011;27638;42.184;24.848;2022-11-15T09:22:31;62.03;;;30.08;;
41946;SDS011;27638;42.184;24.848;2022-11-15T09:24:56;44.08;;;25.35;;
41946;SDS011;27638;42.184;24.848;2022-11-15T09:27:21;50.28;;;25.73;;
41946;SDS011;27638;42.184;24.848;2022-11-15T09:29:47;68.38;;;29.58;;
41946;SDS011;27638;42.184;24.848;2022-11-15T09:32:12;46.45;;;24.95;;
41946;SDS011;27638;42.184;24.848;2022-11-15T09:34:38;44.28;;;25.70;;
41946;SDS011;27638;42.184;24.848;2022-11-15T09:37:03;47.35;;;26.10;;
41946;SDS011;27638;42.184;24.848;2022-11-15T09:39:28;54.75;;;29.60;;
41946;SDS011;27638;42.184;24.848;2022-11-15T09:50:06;48.10;;;27.25;;
41946;SDS011;27638;42.184;24.848;2022-11-15T09:52:34;48.70;;;26.73;;
41946;SDS011;27638;42.184;24.848;2022-11-15T09:55:02;49.20;;;27.88;;
41946;SDS011;27638;42.184;24.848;2022-11-15T09:57:35;46.55;;;27.80;;
41946;SDS011;27638;42.184;24.848;2022-11-15T10:05:49;53.30;;;28.67;;
41946;SDS011;27638;42.184;24.848;2022-11-15T10:08:25;52.35;;;28.25;;
41946;SDS011;27638;42.184;24.848;2022-11-15T10:10:57;44.38;;;26.40;;
41946;SDS011;27638;42.184;24.848;2022-11-15T10:13:25;47.03;;;27.30;;
41946;SDS011;27638;42.184;24.848;2022-11-15T10:15:54;43.80;;;26.15;;
41946;SDS011;27638;42.184;24.848;2022-11-15T10:18:35;53.53;;;27.98;;
41946;SDS011;27638;42.184;24.848;2022-11-15T10:21:53;48.65;;;26.20;;
41946;SDS011;27638;42.184;24.848;2022-11-15T10:24:19;44.20;;;25.80;;
41946;SDS011;27638;42.184;24.848;2022-11-15T10:26:50;42.53;;;24.85;;
41946;SDS011;27638;42.184;24.848;2022-11-15T10:29:19;44.03;;;24.90;;
41946;SDS011;27638;42.184;24.848;2022-11-15T10:31:45;44.08;;;24.85;;
41946;SDS011;27638;42.184;24.848;2022-11-15T10:34:12;40.42;;;24.83;;
41946;SDS011;27638;42.184;24.848;2022-11-15T10:36:44;40.10;;;24.25;;
41946;SDS011;27638;42.184;24.848;2022-11-15T10:39:29;44.50;;;25.80;;
41946;SDS011;27638;42.184;24.848;2022-11-15T10:41:55;42.92;;;23.63;;
41946;SDS011;27638;42.184;24.848;2022-11-15T10:44:26;41.75;;;23.40;;
41946;SDS011;27638;42.184;24.848;2022-11-15T10:49:20;35.20;;;21.33;;
41946;SDS011;27638;42.184;24.848;2022-11-15T10:54:55;30.70;;;18.98;;
41946;SDS011;27638;42.184;24.848;2022-11-15T10:58:04;34.20;;;21.65;;
41946;SDS011;27638;42.184;24.848;2022-11-15T11:03:23;32.42;;;19.27;;
41946;SDS011;27638;42.184;24.848;2022-11-15T11:06:09;33.45;;;19.80;;
41946;SDS011;27638;42.184;24.848;2022-11-15T11:09:00;32.75;;;19.45;;
41946;SDS011;27638;42.184;24.848;2022-11-15T11:11:51;28.25;;;17.33;;
41946;SDS011;27638;42.184;24.848;2022-11-15T11:14:21;33.20;;;19.35;;
41946;SDS011;27638;42.184;24.848;2022-11-15T11:33:32;34.00;;;20.90;;
41946;SDS011;27638;42.184;24.848;2022-11-15T11:49:21;42.42;;;23.85;;
41946;SDS011;27638;42.184;24.848;2022-11-15T11:55:02;50.90;;;27.48;;
41946;SDS011;27638;42.184;24.848;2022-11-15T12:00:19;52.70;;;27.95;;
41946;SDS011;27638;42.184;24.848;2022-11-15T12:02:54;47.22;;;26.35;;
41946;SDS011;27638;42.184;24.848;2022-11-15T12:05:27;54.35;;;27.65;;
41946;SDS011;27638;42.184;24.848;2022-11-15T12:14:16;48.20;;;26.73;;
41946;SDS011;27638;42.184;24.848;2022-11-15T12:16:49;53.25;;;29.35;;
41946;SDS011;27638;42.184;24.848;2022-11-15T12:19:15;55.85;;;30.83;;
41946;SDS011;27638;42.184;24.848;2022-11-15T12:24:22;54.35;;;29.35;;
41946;SDS011;27638;42.184;24.848;2022-11-15T12:26:57;56.58;;;30.40;;
41946;SDS011;27638;42.184;24.848;2022-11-15T12:29:28;52.88;;;30.13;;
41946;SDS011;27638;42.184;24.848;2022-11-15T12:32:00;51.65;;;29.50;;
41946;SDS011;27638;42.184;24.848;2022-11-15T12:37:00;55.17;;;28.95;;
41946;SDS011;27638;42.184;24.848;2022-11-15T12:47:25;49.80;;;29.08;;
41946;SDS011;27638;42.184;24.848;2022-11-15T12:49:52;46.30;;;26.70;;
41946;SDS011;27638;42.184;24.848;2022-11-15T12:52:18;48.00;;;27.80;;
41946;SDS011;27638;42.184;24.848;2022-11-15T12:54:55;47.33;;;27.00;;
41946;SDS011;27638;42.184;24.848;2022-11-15T12:57:26;45.30;;;26.73;;
41946;SDS011;27638;42.184;24.848;2022-11-15T13:17:56;43.85;;;26.48;;
41946;SDS011;27638;42.184;24.848;2022-11-15T13:20:23;49.03;;;27.75;;
41946;SDS011;27638;42.184;24.848;2022-11-15T13:28:02;52.65;;;29.35;;
41946;SDS011;27638;42.184;24.848;2022-11-15T13:30:34;48.05;;;26.15;;
41946;SDS011;27638;42.184;24.848;2022-11-15T13:33:07;49.58;;;27.17;;
41946;SDS011;27638;42.184;24.848;2022-11-15T13:35:40;46.30;;;25.88;;
41946;SDS011;27638;42.184;24.848;2022-11-15T13:38:12;66.40;;;35.47;;
41946;SDS011;27638;42.184;24.848;2022-11-15T13:40:45;63.10;;;34.47;;
41946;SDS011;27638;42.184;24.848;2022-11-15T13:48:30;64.28;;;35.67;;
41946;SDS011;27638;42.184;24.848;2022-11-15T13:50:56;60.38;;;33.92;;
41946;SDS011;27638;42.184;24.848;2022-11-15T13:53:22;71.50;;;36.83;;
41946;SDS011;27638;42.184;24.848;2022-11-15T13:55:49;66.07;;;36.08;;
41946;SDS011;27638;42.184;24.848;2022-11-15T13:58:16;69.47;;;35.97;;
41946;SDS011;27638;42.184;24.848;2022-11-15T14:00:42;77.85;;;37.03;;
41946;SDS011;27638;42.184;24.848;2022-11-15T14:05:39;73.20;;;36.65;;
41946;SDS011;27638;42.184;24.848;2022-11-15T14:08:22;66.25;;;34.80;;
41946;SDS011;27638;42.184;24.848;2022-11-15T14:10:48;67.15;;;35.65;;
41946;SDS011;27638;42.184;24.848;2022-11-15T14:14:01;64.43;;;36.35;;
41946;SDS011;27638;42.184;24.848;2022-11-15T14:16:34;65.68;;;35.53;;
41946;SDS011;27638;42.184;24.848;2022-11-15T14:19:12;70.88;;;36.70;;
41946;SDS011;27638;42.184;24.848;2022-11-15T14:27:44;77.32;;;38.13;;
41946;SDS011;27638;42.184;24.848;2022-11-15T14:30:30;71.97;;;39.08;;
41946;SDS011;27638;42.184;24.848;2022-11-15T14:32:55;69.03;;;38.40;;
41946;SDS011;27638;42.184;24.848;2022-11-15T14:35:21;76.20;;;42.28;;
41946;SDS011;27638;42.184;24.848;2022-11-15T14:37:48;74.47;;;40.17;;
41946;SDS011;27638;42.184;24.848;2022-11-15T14:40:17;72.35;;;38.42;;
41946;SDS011;27638;42.184;24.848;2022-11-15T14:42:45;75.70;;;39.83;;
41946;SDS011;27638;42.184;24.848;2022-11-15T14:45:13;76.82;;;40.50;;
41946;SDS011;27638;42.184;24.848;2022-11-15T14:47:39;77.43;;;40.35;;
41946;SDS011;27638;42.184;24.848;2022-11-15T14:50:05;79.78;;;40.97;;
41946;SDS011;27638;42.184;24.848;2022-11-15T14:52:32;84.40;;;38.72;;
41946;SDS011;27638;42.184;24.848;2022-11-15T14:55:00;77.55;;;39.42;;
41946;SDS011;27638;42.184;24.848;2022-11-15T14:57:27;81.80;;;40.55;;
41946;SDS011;27638;42.184;24.848;2022-11-15T14:59:53;79.03;;;40.63;;
41946;SDS011;27638;42.184;24.848;2022-11-15T15:02:20;88.25;;;42.22;;
41946;SDS011;27638;42.184;24.848;2022-11-15T15:04:48;91.68;;;41.80;;
41946;SDS011;27638;42.184;24.848;2022-11-15T15:07:14;84.95;;;41.78;;
41946;SDS011;27638;42.184;24.848;2022-11-15T15:09:40;91.95;;;43.38;;
41946;SDS011;27638;42.184;24.848;2022-11-15T15:12:16;85.65;;;42.60;;
41946;SDS011;27638;42.184;24.848;2022-11-15T15:14:44;92.22;;;45.90;;
41946;SDS011;27638;42.184;24.848;2022-11-15T15:17:11;87.25;;;45.55;;
41946;SDS011;27638;42.184;24.848;2022-11-15T15:19:36;75.35;;;40.97;;
41946;SDS011;27638;42.184;24.848;2022-11-15T15:22:02;83.97;;;41.75;;
41946;SDS011;27638;42.184;24.848;2022-11-15T15:24:27;80.32;;;42.33;;
41946;SDS011;27638;42.184;24.848;2022-11-15T15:26:53;99.30;;;47.28;;
41946;SDS011;27638;42.184;24.848;2022-11-15T15:29:18;87.60;;;41.97;;
41946;SDS011;27638;42.184;24.848;2022-11-15T15:31:43;83.43;;;45.78;;
41946;SDS011;27638;42.184;24.848;2022-11-15T15:34:09;89.93;;;45.55;;
41946;SDS011;27638;42.184;24.848;2022-11-15T15:36:34;91.60;;;45.10;;
41946;SDS011;27638;42.184;24.848;2022-11-15T15:38:59;93.75;;;44.45;;
41946;SDS011;27638;42.184;24.848;2022-11-15T15:41:25;127.45;;;64.72;;
41946;SDS011;27638;42.184;24.848;2022-11-15T15:43:50;92.63;;;48.08;;
41946;SDS011;27638;42.184;24.848;2022-11-15T15:46:17;88.47;;;46.00;;
41946;SDS011;27638;42.184;24.848;2022-11-15T15:48:44;85.35;;;43.83;;
41946;SDS011;27638;42.184;24.848;2022-11-15T15:51:10;103.75;;;50.05;;
41946;SDS011;27638;42.184;24.848;2022-11-15T15:53:35;150.05;;;73.63;;
41946;SDS011;27638;42.184;24.848;2022-11-15T15:56:01;210.52;;;116.35;;
41946;SDS011;27638;42.184;24.848;2022-11-15T15:58:27;172.65;;;86.88;;
41946;SDS011;27638;42.184;24.848;2022-11-15T16:00:52;152.45;;;80.05;;
41946;SDS011;27638;42.184;24.848;2022-11-15T16:03:18;132.55;;;67.13;;
41946;SDS011;27638;42.184;24.848;2022-11-15T16:05:43;131.30;;;67.65;;
41946;SDS011;27638;42.184;24.848;2022-11-15T16:08:30;118.18;;;63.42;;
41946;SDS011;27638;42.184;24.848;2022-11-15T16:10:55;123.15;;;61.38;;
41946;SDS011;27638;42.184;24.848;2022-11-15T16:13:20;114.28;;;57.85;;
41946;SDS011;27638;42.184;24.848;2022-11-15T16:15:46;123.65;;;61.85;;
41946;SDS011;27638;42.184;24.848;2022-11-15T16:18:15;185.23;;;92.13;;
41946;SDS011;27638;42.184;24.848;2022-11-15T16:20:46;179.55;;;88.90;;
41946;SDS011;27638;42.184;24.848;2022-11-15T16:23:16;243.10;;;108.75;;
41946;SDS011;27638;42.184;24.848;2022-11-15T16:25:46;272.33;;;118.75;;
41946;SDS011;27638;42.184;24.848;2022-11-15T16:30:42;283.88;;;124.82;;
41946;SDS011;27638;42.184;24.848;2022-11-15T16:33:07;136.68;;;66.50;;
41946;SDS011;27638;42.184;24.848;2022-11-15T16:35:33;188.32;;;91.25;;
41946;SDS011;27638;42.184;24.848;2022-11-15T16:37:58;251.73;;;118.93;;
41946;SDS011;27638;42.184;24.848;2022-11-15T16:42:49;136.32;;;70.47;;
41946;SDS011;27638;42.184;24.848;2022-11-15T16:45:14;140.30;;;68.53;;
41946;SDS011;27638;42.184;24.848;2022-11-15T16:47:39;133.43;;;68.60;;
41946;SDS011;27638;42.184;24.848;2022-11-15T16:50:05;137.85;;;72.35;;
41946;SDS011;27638;42.184;24.848;2022-11-15T16:52:31;144.20;;;72.43;;
41946;SDS011;27638;42.184;24.848;2022-11-15T16:54:56;116.00;;;61.33;;